Time;durP1;ratioP1;P1;durP2;ratioP2;P2;SDS_P1;SDS_P2;PMS_P1;PMS_P2;Temp;Humidity;BMP_temperature;BMP_pressure;BME280_temperature;BME280_humidity;BME280_pressure;Samples;Min_cycle;Max_cycle;Signal;HPM_P1;HPM_P2
2022/03/21 00:00:43;;;;;;;;;;;;;;;2.13;100.00;102985.06;4975775;28;20005;-69
2022/03/21 00:03:09;;;;;;;;;;;;;;;2.35;100.00;102989.16;4976528;28;20024;-69
2022/03/21 00:05:35;;;;;;;;;;;;;;;2.46;100.00;102999.03;4976877;28;19925;-69
2022/03/21 00:08:00;;;;;;;;;;;;;;;2.40;100.00;102992.75;4975448;28;19918;-69
2022/03/21 00:10:26;;;;;;;;;;;;;;;2.39;100.00;102994.50;4977328;28;20360;-69
2022/03/21 00:12:51;;;;;;;;;;;;;;;2.38;100.00;102991.84;4975320;28;20304;-69
2022/03/21 00:15:17;;;;;;;;;;;;;;;2.19;100.00;102998.34;4976548;28;19927;-69
2022/03/21 00:17:42;;;;;;;;;;;;;;;2.01;100.00;102992.63;4976139;28;20013;-69
2022/03/21 00:20:11;;;;;;;;;;;;;;;2.02;100.00;102990.91;4976116;28;20008;-68
2022/03/21 00:22:37;;;;;;;;;;;;;;;2.06;100.00;102995.38;4975107;28;19921;-69
2022/03/21 00:25:03;;;;;;;;;;;;;;;1.93;100.00;102988.03;4975275;28;19918;-69
2022/03/21 00:27:28;;;;;;;;;;;;;;;1.78;100.00;102991.09;4976530;28;19929;-69
2022/03/21 00:29:53;;;;;;;;;;;;;;;1.67;100.00;102994.31;4976171;28;20287;-69
2022/03/21 00:32:19;;;;;;;;;;;;;;;1.63;100.00;102992.44;4976191;28;19922;-69
2022/03/21 00:34:44;;;;;;;;;;;;;;;1.62;100.00;102995.91;4976378;28;20232;-69
2022/03/21 00:37:12;;;;;;;;;;;;;;;1.63;100.00;103006.41;4975899;28;19922;-69
2022/03/21 00:39:38;;;;;;;;;;;;;;;1.69;100.00;103001.34;4976411;28;19922;-69
2022/03/21 00:42:04;;;;;;;;;;;;;;;1.67;100.00;103003.03;4976000;28;19926;-69
2022/03/21 00:44:29;;;;;;;;;;;;;;;1.64;100.00;103000.31;4976005;28;19922;-69
2022/03/21 00:46:54;;;;;;;;;;;;;;;1.69;100.00;103000.47;4976105;28;20291;-69
2022/03/21 00:49:19;;;;;;;;;;;;;;;1.72;100.00;103001.44;4974685;28;19930;-69
2022/03/21 00:51:45;;;;;;;;;;;;;;;1.61;100.00;102997.63;4974538;28;19980;-69
2022/03/21 00:54:10;;;;;;;;;;;;;;;1.53;100.00;102999.13;4975873;28;20074;-69
2022/03/21 00:56:35;;;;;;;;;;;;;;;1.44;100.00;102999.78;4975701;28;20013;-69
2022/03/21 00:59:00;;;;;;;;;;;;;;;1.39;100.00;103005.72;4975313;28;20024;-69
2022/03/21 01:01:25;;;;;;;;;;;;;;;1.32;100.00;103004.63;4975676;28;20439;-69
2022/03/21 01:03:51;;;;;;;;;;;;;;;1.31;100.00;103018.59;4975715;28;19942;-69
2022/03/21 01:06:16;;;;;;;;;;;;;;;1.20;100.00;103019.09;4973724;28;19918;-69
2022/03/21 01:08:41;;;;;;;;;;;;;;;1.11;100.00;103021.44;4975360;28;19949;-69
2022/03/21 01:11:06;;;;;;;;;;;;;;;1.02;100.00;103021.19;4976034;28;20311;-69
2022/03/21 01:13:31;;;;;;;;;;;;;;;0.96;100.00;103023.63;4975726;28;19972;-68
2022/03/21 01:15:57;;;;;;;;;;;;;;;0.91;100.00;103028.69;4975306;28;19934;-69
2022/03/21 01:18:22;;;;;;;;;;;;;;;0.86;100.00;103032.91;4975288;28;19918;-69
2022/03/21 01:20:48;;;;;;;;;;;;;;;0.78;100.00;103030.88;4975644;28;19918;-69
2022/03/21 01:23:13;;;;;;;;;;;;;;;0.74;100.00;103036.84;4974063;28;20090;-69
2022/03/21 01:25:38;;;;;;;;;;;;;;;0.67;100.00;103047.94;4975031;28;19919;-69
2022/03/21 01:28:04;;;;;;;;;;;;;;;0.66;100.00;103043.56;4974904;28;19918;-69
2022/03/21 01:30:29;;;;;;;;;;;;;;;0.65;100.00;103049.59;4973856;28;19977;-69
2022/03/21 01:32:54;;;;;;;;;;;;;;;0.62;100.00;103053.03;4975718;28;20426;-68
2022/03/21 01:35:21;;;;;;;;;;;;;;;0.60;100.00;103053.81;4975192;28;20012;-68
2022/03/21 01:37:46;;;;;;;;;;;;;;;0.58;100.00;103058.09;4976867;28;19922;-69
2022/03/21 01:40:13;;;;;;;;;;;;;;;0.56;100.00;103067.63;4976470;28;19926;-68
2022/03/21 01:42:41;;;;;;;;;;;;;;;0.55;100.00;103071.94;4974429;28;19918;-69
2022/03/21 01:45:07;;;;;;;;;;;;;;;0.51;100.00;103075.31;4975534;28;19918;-68
2022/03/21 01:47:33;;;;;;;;;;;;;;;0.54;100.00;103083.25;4973882;28;19981;-69
2022/03/21 01:49:58;;;;;;;;;;;;;;;0.49;100.00;103081.34;5029159;23;19995;-68
2022/03/21 01:52:24;;;;;;;;;;;;;;;0.46;100.00;103087.31;5014078;28;19926;-70
2022/03/21 01:57:33;;;;;;;;;;;;;;;0.48;100.00;103093.50;5014194;28;19923;-67
2022/03/21 01:59:59;;;;;;;;;;;;;;;0.60;100.00;103093.91;5013882;28;19917;-68
2022/03/21 02:02:25;;;;;;;;;;;;;;;0.70;100.00;103095.09;5015305;28;19917;-68
2022/03/21 02:04:50;;;;;;;;;;;;;;;0.71;100.00;103094.28;5014373;28;20298;-68
2022/03/21 02:07:17;;;;;;;;;;;;;;;0.68;100.00;103102.03;5012843;28;19918;-70
2022/03/21 02:09:42;;;;;;;;;;;;;;;0.73;100.00;103103.03;5014192;28;19917;-68
2022/03/21 02:12:08;;;;;;;;;;;;;;;0.66;100.00;103111.53;5012869;28;20282;-68
2022/03/21 02:14:39;;;;;;;;;;;;;;;0.83;100.00;103113.00;5012667;28;19917;-68
2022/03/21 02:17:04;;;;;;;;;;;;;;;0.79;100.00;103108.50;5014020;28;20298;-69
2022/03/21 02:19:34;;;;;;;;;;;;;;;0.68;100.00;103115.97;5013889;28;19918;-69
2022/03/21 02:22:09;;;;;;;;;;;;;;;0.65;100.00;103107.13;5012721;28;19921;-68
2022/03/21 02:24:44;;;;;;;;;;;;;;;0.57;100.00;103112.09;5013882;28;19917;-68
2022/03/21 02:27:10;;;;;;;;;;;;;;;0.53;100.00;103118.09;5012717;28;19936;-69
2022/03/21 02:29:37;;;;;;;;;;;;;;;0.47;100.00;103117.88;5014067;28;20321;-68
2022/03/21 02:32:03;;;;;;;;;;;;;;;0.41;100.00;103122.88;5012473;28;19918;-69
2022/03/21 02:34:28;;;;;;;;;;;;;;;0.43;100.00;103115.09;5013842;28;20462;-69
2022/03/21 02:36:59;;;;;;;;;;;;;;;0.34;100.00;103120.00;5013992;28;19921;-69
2022/03/21 02:39:25;;;;;;;;;;;;;;;0.32;100.00;103122.56;5012538;28;20330;-69
2022/03/21 02:41:51;;;;;;;;;;;;;;;0.32;100.00;103121.66;5013838;28;19964;-68
2022/03/21 02:44:16;;;;;;;;;;;;;;;0.29;100.00;103125.06;5014362;28;19917;-69
2022/03/21 02:46:41;;;;;;;;;;;;;;;0.27;100.00;103123.25;5012435;28;19961;-69
2022/03/21 02:49:07;;;;;;;;;;;;;;;0.22;100.00;103135.25;5013784;28;19922;-69
2022/03/21 02:51:36;;;;;;;;;;;;;;;0.19;100.00;103130.78;4995085;28;19929;-69
2022/03/21 02:54:01;;;;;;;;;;;;;;;0.14;100.00;103126.25;4995424;28;20294;-69
2022/03/21 02:56:26;;;;;;;;;;;;;;;0.12;100.00;103139.25;4997757;28;20013;-69
2022/03/21 02:58:51;;;;;;;;;;;;;;;0.13;100.00;103138.41;4996655;28;19925;-68
2022/03/21 03:07:25;;;;;;;;;;;;;;;0.18;100.00;103155.16;4985424;28;19924;-68
2022/03/21 03:09:50;;;;;;;;;;;;;;;0.17;100.00;103149.88;4997853;28;20013;-68
2022/03/21 03:12:15;;;;;;;;;;;;;;;0.18;100.00;103149.94;4996183;28;19965;-68
2022/03/21 03:14:54;;;;;;;;;;;;;;;0.16;100.00;103153.34;4995902;28;20044;-68
2022/03/21 03:17:19;;;;;;;;;;;;;;;0.21;100.00;103159.59;4996268;28;19921;-68
2022/03/21 03:19:55;;;;;;;;;;;;;;;0.20;100.00;103157.81;4989409;28;19925;-69
2022/03/21 03:22:21;;;;;;;;;;;;;;;0.29;100.00;103160.75;4992841;28;20001;-68
2022/03/21 03:24:47;;;;;;;;;;;;;;;0.67;100.00;103171.75;4991210;28;19918;-68
2022/03/21 03:27:12;;;;;;;;;;;;;;;1.10;100.00;103171.44;4997710;28;19925;-69
2022/03/21 03:29:37;;;;;;;;;;;;;;;1.63;100.00;103160.94;4997406;28;20386;-69
2022/03/21 03:32:03;;;;;;;;;;;;;;;1.48;100.00;103156.09;4996086;28;19925;-69
2022/03/21 03:34:29;;;;;;;;;;;;;;;1.48;100.00;103147.38;4997259;28;19921;-69
2022/03/21 03:36:55;;;;;;;;;;;;;;;1.61;100.00;103153.88;4996979;28;19924;-69
2022/03/21 03:39:20;;;;;;;;;;;;;;;1.76;100.00;103151.72;4996132;28;19918;-69
2022/03/21 03:41:45;;;;;;;;;;;;;;;1.59;100.00;103131.13;4995956;28;19969;-69
2022/03/21 03:44:10;;;;;;;;;;;;;;;1.53;100.00;103117.88;4997500;28;19917;-69
2022/03/21 03:46:36;;;;;;;;;;;;;;;1.58;100.00;103116.28;4989460;28;20276;-69
2022/03/21 03:49:01;;;;;;;;;;;;;;;1.51;100.00;103108.19;4986104;28;20409;-69
2022/03/21 03:51:26;;;;;;;;;;;;;;;1.42;100.00;103107.91;4985353;28;20000;-70
2022/03/21 03:53:51;;;;;;;;;;;;;;;1.22;100.00;103099.47;4982481;28;20296;-69
2022/03/21 03:56:18;;;;;;;;;;;;;;;1.21;100.00;103091.56;4993764;28;20398;-69
2022/03/21 03:58:43;;;;;;;;;;;;;;;1.23;100.00;103088.13;4995375;28;19968;-70
2022/03/21 04:01:09;;;;;;;;;;;;;;;1.18;100.00;103081.88;4995329;28;19918;-69
2022/03/21 04:03:46;;;;;;;;;;;;;;;1.16;100.00;103078.34;4996555;28;19962;-69
2022/03/21 04:06:13;;;;;;;;;;;;;;;1.17;100.00;103073.97;4996069;28;19964;-69
2022/03/21 04:08:38;;;;;;;;;;;;;;;1.17;100.00;103073.97;4995479;28;19918;-68
2022/03/21 04:11:04;;;;;;;;;;;;;;;1.12;100.00;103072.97;4996484;28;19964;-70
2022/03/21 04:13:29;;;;;;;;;;;;;;;1.04;100.00;103072.69;4996386;28;20012;-70
2022/03/21 04:15:54;;;;;;;;;;;;;;;1.11;100.00;103068.56;4995220;28;20012;-69
2022/03/21 04:18:20;;;;;;;;;;;;;;;1.14;100.00;103072.16;4996918;28;19922;-70
2022/03/21 04:20:45;;;;;;;;;;;;;;;1.10;100.00;103070.28;4995097;28;20009;-69
2022/03/21 04:23:11;;;;;;;;;;;;;;;1.25;100.00;103070.75;4996257;28;20339;-69
2022/03/21 04:25:37;;;;;;;;;;;;;;;1.22;100.00;103070.66;4996243;28;19918;-69
2022/03/21 04:28:09;;;;;;;;;;;;;;;1.19;100.00;103069.69;4996170;28;19918;-69
2022/03/21 04:30:35;;;;;;;;;;;;;;;1.22;100.00;103065.44;4994675;28;20387;-69
2022/03/21 04:33:00;;;;;;;;;;;;;;;1.15;100.00;103068.69;4994746;28;19925;-69
2022/03/21 04:35:26;;;;;;;;;;;;;;;1.09;100.00;103065.88;4996039;28;20375;-69
2022/03/21 04:37:51;;;;;;;;;;;;;;;1.04;100.00;103070.09;4994523;28;19976;-69
2022/03/21 04:40:17;;;;;;;;;;;;;;;0.93;100.00;103070.59;4995895;28;20330;-69
2022/03/21 04:42:42;;;;;;;;;;;;;;;0.87;100.00;103073.00;4996277;28;19924;-70
2022/03/21 04:45:07;;;;;;;;;;;;;;;0.90;100.00;103073.13;4994435;28;20010;-69
2022/03/21 04:47:33;;;;;;;;;;;;;;;0.98;100.00;103069.91;4994383;28;19957;-69
2022/03/21 04:49:58;;;;;;;;;;;;;;;1.00;100.00;103075.19;4994251;28;20365;-69
2022/03/21 04:52:23;;;;;;;;;;;;;;;0.89;100.00;103068.72;4994490;28;19987;-69
2022/03/21 04:54:49;;;;;;;;;;;;;;;0.82;100.00;103078.09;4995523;28;19926;-70
2022/03/21 04:57:14;;;;;;;;;;;;;;;0.82;100.00;103080.69;4994537;28;19918;-70
2022/03/21 04:59:39;;;;;;;;;;;;;;;1.06;100.00;103080.59;4994370;28;19918;-69
2022/03/21 05:02:05;;;;;;;;;;;;;;;1.07;100.00;103078.03;4995545;28;19917;-69
2022/03/21 05:04:31;;;;;;;;;;;;;;;0.99;100.00;103076.88;4995427;28;19918;-69
2022/03/21 05:06:57;;;;;;;;;;;;;;;0.81;100.00;103080.66;4993973;28;19965;-70
2022/03/21 05:09:22;;;;;;;;;;;;;;;0.79;100.00;103078.00;4994010;28;19925;-69
2022/03/21 05:11:47;;;;;;;;;;;;;;;0.75;100.00;103080.47;4994068;28;19918;-69
2022/03/21 05:14:12;;;;;;;;;;;;;;;0.65;100.00;103086.22;4993994;28;19921;-69
2022/03/21 05:16:38;;;;;;;;;;;;;;;0.61;100.00;103076.50;4993729;28;20315;-70
2022/03/21 05:19:04;;;;;;;;;;;;;;;0.59;100.00;103083.41;4994034;28;19964;-69
2022/03/21 05:21:29;;;;;;;;;;;;;;;0.54;100.00;103074.50;4995673;28;20013;-69
2022/03/21 05:32:06;;;;;;;;;;;;;;;0.39;100.00;103094.91;4995350;28;19925;-70
2022/03/21 05:37:16;;;;;;;;;;;;;;;0.23;100.00;103098.72;4984334;28;19925;-70
2022/03/21 05:42:26;;;;;;;;;;;;;;;0.47;100.00;103099.59;4986826;28;19925;-70
2022/03/21 05:44:51;;;;;;;;;;;;;;;0.46;100.00;103113.47;4984027;28;19918;-69
2022/03/21 05:47:16;;;;;;;;;;;;;;;0.42;100.00;103105.47;4995745;28;19922;-69
2022/03/21 05:49:42;;;;;;;;;;;;;;;0.38;100.00;103112.31;4985106;28;19924;-69
2022/03/21 05:52:07;;;;;;;;;;;;;;;0.47;100.00;103111.75;4980804;28;20344;-70
2022/03/21 05:54:32;;;;;;;;;;;;;;;0.85;100.00;103112.19;4983036;28;19924;-73
2022/03/21 05:56:57;;;;;;;;;;;;;;;0.94;100.00;103119.47;4979460;28;20047;-68
2022/03/21 06:02:06;;;;;;;;;;;;;;;0.98;100.00;103121.31;4983075;28;19968;-69
2022/03/21 06:04:31;;;;;;;;;;;;;;;0.94;100.00;103125.59;4984841;28;19926;-69
2022/03/21 06:06:56;;;;;;;;;;;;;;;0.91;100.00;103127.22;4986122;28;19925;-68
2022/03/21 06:09:22;;;;;;;;;;;;;;;0.96;100.00;103138.72;4984826;28;19922;-69
2022/03/21 06:11:50;;;;;;;;;;;;;;;0.93;100.00;103134.25;4979374;28;19918;-69
2022/03/21 06:14:18;;;;;;;;;;;;;;;1.00;100.00;103132.72;4988413;28;19922;-69
2022/03/21 06:16:43;;;;;;;;;;;;;;;1.16;100.00;103141.16;4987122;28;19953;-70
2022/03/21 06:19:09;;;;;;;;;;;;;;;1.13;100.00;103146.28;4994304;28;19968;-70
2022/03/21 06:21:35;;;;;;;;;;;;;;;1.38;100.00;103143.59;4985754;28;19918;-69
2022/03/21 06:24:00;;;;;;;;;;;;;;;1.30;100.00;103154.66;4982749;28;19922;-69
2022/03/21 06:26:25;;;;;;;;;;;;;;;1.35;100.00;103153.97;4983292;28;19941;-69
2022/03/21 06:28:50;;;;;;;;;;;;;;;1.42;100.00;103160.25;4981740;28;19918;-69
2022/03/21 06:31:16;;;;;;;;;;;;;;;1.39;100.00;103160.16;4979351;28;19929;-69
2022/03/21 06:33:41;;;;;;;;;;;;;;;1.56;100.00;103161.56;4989652;28;19918;-69
2022/03/21 06:36:07;;;;;;;;;;;;;;;1.52;100.00;103165.84;4984046;28;20435;-70
2022/03/21 06:38:32;;;;;;;;;;;;;;;1.45;100.00;103157.75;4994702;28;19918;-69
2022/03/21 06:40:58;;;;;;;;;;;;;;;1.43;100.00;103164.69;4987562;28;19918;-69
2022/03/21 06:43:24;;;;;;;;;;;;;;;1.45;100.00;103165.59;4982484;28;19918;-69
2022/03/21 06:45:53;;;;;;;;;;;;;;;1.42;100.00;103173.34;4983714;28;20013;-70
2022/03/21 06:48:19;;;;;;;;;;;;;;;1.43;100.00;103164.69;4979251;28;19977;-70
2022/03/21 06:50:48;;;;;;;;;;;;;;;1.45;100.00;103176.06;4996698;28;19921;-70
2022/03/21 06:53:13;;;;;;;;;;;;;;;1.45;100.00;103173.44;4985329;28;20363;-69
2022/03/21 06:55:38;;;;;;;;;;;;;;;1.47;100.00;103182.25;4988952;28;19928;-69
2022/03/21 06:58:06;;;;;;;;;;;;;;;1.51;100.00;103181.53;4988424;28;19964;-68
2022/03/21 07:00:31;;;;;;;;;;;;;;;1.61;100.00;103178.31;4993694;28;19918;-68
2022/03/21 07:02:56;;;;;;;;;;;;;;;1.75;100.00;103191.88;4987538;28;19917;-68
2022/03/21 07:05:22;;;;;;;;;;;;;;;1.78;100.00;103184.97;4990712;28;19918;-68
2022/03/21 07:07:47;;;;;;;;;;;;;;;1.83;100.00;103190.38;4996873;28;19918;-69
2022/03/21 07:10:12;;;;;;;;;;;;;;;1.97;100.00;103194.28;4998644;28;19918;-69
2022/03/21 07:12:38;;;;;;;;;;;;;;;2.00;100.00;103191.75;4987639;28;20359;-70
2022/03/21 07:15:04;;;;;;;;;;;;;;;2.02;100.00;103201.41;4991319;28;19918;-70
2022/03/21 07:17:29;;;;;;;;;;;;;;;2.08;100.00;103204.22;4988757;28;19918;-76
2022/03/21 07:19:54;;;;;;;;;;;;;;;2.38;100.00;103207.72;4989491;28;20303;-69
2022/03/21 07:22:20;;;;;;;;;;;;;;;2.36;100.00;103212.06;4991820;28;19918;-69
2022/03/21 07:24:45;;;;;;;;;;;;;;;2.48;100.00;103208.88;4986709;28;19919;-69
2022/03/21 07:27:11;;;;;;;;;;;;;;;2.60;100.00;103202.22;4985026;28;19918;-69
2022/03/21 07:29:37;;;;;;;;;;;;;;;2.61;100.00;103221.50;4989346;28;19965;-69
2022/03/21 07:32:03;;;;;;;;;;;;;;;2.65;100.00;103211.13;4988317;28;19919;-69
2022/03/21 07:34:28;;;;;;;;;;;;;;;2.81;100.00;103221.19;4988245;28;19937;-69
2022/03/21 07:36:54;;;;;;;;;;;;;;;2.90;100.00;103210.91;4982600;28;19922;-69
2022/03/21 07:39:19;;;;;;;;;;;;;;;2.97;100.00;103201.47;4995899;28;19928;-69
2022/03/21 07:41:44;;;;;;;;;;;;;;;3.00;100.00;103207.69;4994534;28;19929;-69
2022/03/21 07:44:10;;;;;;;;;;;;;;;3.08;100.00;103206.16;4985456;28;19929;-69
2022/03/21 07:49:19;;;;;;;;;;;;;;;3.18;100.00;103205.53;4984348;28;19987;-69
2022/03/21 07:51:44;;;;;;;;;;;;;;;3.26;100.00;103202.22;4991093;28;19921;-69
2022/03/21 07:54:11;;;;;;;;;;;;;;;3.31;100.00;103203.22;4981885;28;19941;-69
2022/03/21 07:56:37;;;;;;;;;;;;;;;3.53;100.00;103205.50;4984471;28;20394;-69
2022/03/21 07:59:03;;;;;;;;;;;;;;;3.69;100.00;103212.91;4989866;28;19918;-68
2022/03/21 08:01:31;;;;;;;;;;;;;;;3.71;100.00;103211.16;4988443;28;19922;-68
2022/03/21 08:03:57;;;;;;;;;;;;;;;3.72;100.00;103210.34;4986253;28;19918;-68
2022/03/21 08:06:23;;;;;;;;;;;;;;;3.79;100.00;103194.72;4987296;28;19917;-68
2022/03/21 08:08:49;;;;;;;;;;;;;;;4.21;100.00;103195.66;4989433;28;19918;-69
2022/03/21 08:11:15;;;;;;;;;;;;;;;4.32;100.00;103207.28;4986662;28;19918;-68
2022/03/21 08:13:40;;;;;;;;;;;;;;;4.41;100.00;103206.59;4981207;28;20431;-69
2022/03/21 08:16:05;;;;;;;;;;;;;;;4.42;100.00;103205.72;4977156;28;20367;-69
2022/03/21 08:18:30;;;;;;;;;;;;;;;4.55;100.00;103205.09;4977310;28;19973;-69
2022/03/21 08:20:55;;;;;;;;;;;;;;;4.60;100.00;103206.94;4976835;28;20017;-69
2022/03/21 08:23:21;;;;;;;;;;;;;;;4.77;100.00;103209.03;4991775;28;20372;-69
2022/03/21 08:25:46;;;;;;;;;;;;;;;4.74;100.00;103210.72;4991796;28;19918;-69
2022/03/21 08:28:12;;;;;;;;;;;;;;;4.90;100.00;103217.16;4986449;28;19925;-71
2022/03/21 08:30:38;;;;;;;;;;;;;;;5.01;100.00;103204.22;4997134;28;20295;-73
2022/03/21 08:33:04;;;;;;;;;;;;;;;5.04;100.00;103201.63;4996674;28;19961;-69
2022/03/21 08:35:32;;;;;;;;;;;;;;;5.06;100.00;103200.78;4994717;28;19922;-68
2022/03/21 08:37:57;;;;;;;;;;;;;;;5.13;100.00;103197.41;4995854;28;19925;-68
2022/03/21 08:40:23;;;;;;;;;;;;;;;5.26;100.00;103199.41;4995869;28;19922;-69
2022/03/21 08:42:48;;;;;;;;;;;;;;;5.39;100.00;103198.72;4994504;28;19921;-69
2022/03/21 08:45:15;;;;;;;;;;;;;;;5.52;100.00;103197.16;4996481;28;19964;-71
2022/03/21 08:47:40;;;;;;;;;;;;;;;5.82;100.00;103200.28;4995966;28;20248;-69
2022/03/21 08:50:06;;;;;;;;;;;;;;;6.09;100.00;103196.28;4995714;28;19925;-69
2022/03/21 08:52:32;;;;;;;;;;;;;;;6.34;100.00;103191.28;4995754;28;19917;-69
2022/03/21 08:54:57;;;;;;;;;;;;;;;6.47;100.00;103193.22;4994596;28;19925;-69
2022/03/21 08:57:22;;;;;;;;;;;;;;;6.73;100.00;103192.63;4993548;28;19937;-69
2022/03/21 08:59:48;;;;;;;;;;;;;;;6.97;100.00;103192.88;4977171;28;20347;-68
2022/03/21 09:02:13;;;;;;;;;;;;;;;6.93;100.00;103185.81;4995657;28;19926;-69
2022/03/21 09:04:39;;;;;;;;;;;;;;;7.16;100.00;103184.25;4994318;28;19928;-68
2022/03/21 09:07:05;;;;;;;;;;;;;;;7.65;100.00;103180.19;4995994;28;20359;-69
2022/03/21 09:09:30;;;;;;;;;;;;;;;8.13;100.00;103174.28;4994256;28;19918;-69
2022/03/21 09:11:55;;;;;;;;;;;;;;;8.82;100.00;103174.53;4994164;28;19980;-68
2022/03/21 09:14:20;;;;;;;;;;;;;;;9.09;100.00;103164.81;4988704;28;20406;-69
2022/03/21 09:16:46;;;;;;;;;;;;;;;9.12;100.00;103178.06;4995341;28;19925;-69
2022/03/21 09:19:11;;;;;;;;;;;;;;;9.82;100.00;103170.03;4995130;28;19925;-69
2022/03/21 09:21:37;;;;;;;;;;;;;;;10.11;100.00;103160.25;4995220;28;20009;-69
2022/03/21 09:24:02;;;;;;;;;;;;;;;10.49;100.00;103147.69;4994066;28;19918;-69
2022/03/21 09:26:28;;;;;;;;;;;;;;;10.99;100.00;103155.28;4977614;28;19933;-68
2022/03/21 09:28:59;;;;;;;;;;;;;;;10.44;100.00;103153.03;4993667;28;19918;-68
2022/03/21 09:31:25;;;;;;;;;;;;;;;10.58;100.00;103150.28;4993703;28;20008;-68
2022/03/21 09:33:51;;;;;;;;;;;;;;;11.07;100.00;103156.13;4995050;28;20359;-68
2022/03/21 09:36:16;;;;;;;;;;;;;;;11.26;100.00;103150.66;4994782;28;19918;-69
2022/03/21 09:38:41;;;;;;;;;;;;;;;12.04;100.00;103155.16;4993405;28;20291;-69
2022/03/21 09:41:12;;;;;;;;;;;;;;;12.50;100.00;103151.88;4994897;28;19918;-69
2022/03/21 09:43:39;;;;;;;;;;;;;;;12.85;100.00;103146.94;4994450;28;19917;-69
2022/03/21 09:46:06;;;;;;;;;;;;;;;12.52;100.00;103150.09;4994851;28;20019;-69
2022/03/21 09:48:32;;;;;;;;;;;;;;;12.64;100.00;103144.59;4993373;28;19938;-68
2022/03/21 09:50:58;;;;;;;;;;;;;;;13.04;100.00;103148.44;4992940;28;20008;-68
2022/03/21 09:53:25;;;;;;;;;;;;;;;12.86;100.00;103148.72;4994242;28;19968;-68
2022/03/21 09:55:50;;;;;;;;;;;;;;;12.86;100.00;103146.03;4986798;28;19953;-70
2022/03/21 09:58:15;;;;;;;;;;;;;;;13.39;100.00;103152.25;4989218;28;19964;-69
2022/03/21 10:00:42;;;;;;;;;;;;;;;14.07;100.00;103136.72;4993086;28;19925;-68
2022/03/21 10:03:07;;;;;;;;;;;;;;;14.48;100.00;103134.94;4987303;28;19922;-69
2022/03/21 10:05:33;;;;;;;;;;;;;;;14.76;100.00;103132.50;4994298;28;19949;-68
2022/03/21 10:08:18;;;;;;;;;;;;;;;14.46;100.00;103139.47;4994035;28;20046;-68
2022/03/21 10:11:16;;;;;;;;;;;;;;;14.01;100.00;103153.75;4978658;28;19918;-68
2022/03/21 10:13:41;;;;;;;;;;;;;;;15.01;100.00;103137.25;4972147;28;19918;-69
2022/03/21 10:16:07;;;;;;;;;;;;;;;14.25;100.00;103139.91;4993342;28;19940;-69
2022/03/21 10:18:32;;;;;;;;;;;;;;;14.82;100.00;103140.38;4993446;28;20361;-73
2022/03/21 10:21:08;;;;;;;;;;;;;;;14.52;100.00;103146.44;4993225;28;20004;-71
2022/03/21 10:23:34;;;;;;;;;;;;;;;14.57;100.00;103142.78;4975367;28;19917;-71
2022/03/21 10:26:00;;;;;;;;;;;;;;;15.24;100.00;103142.88;4975620;28;20287;-70
2022/03/21 10:28:35;;;;;;;;;;;;;;;15.33;100.00;103133.75;4985663;28;19925;-70
2022/03/21 10:31:01;;;;;;;;;;;;;;;15.89;100.00;103137.59;4993921;28;20322;-73
2022/03/21 10:33:27;;;;;;;;;;;;;;;16.86;100.00;103147.13;4995391;28;19917;-71
2022/03/21 10:35:52;;;;;;;;;;;;;;;17.05;100.00;103145.59;4994777;28;20371;-70
2022/03/21 10:38:28;;;;;;;;;;;;;;;17.60;100.00;103153.56;4993366;28;19964;-71
2022/03/21 10:40:54;;;;;;;;;;;;;;;17.87;100.00;103151.72;4993426;28;19924;-72
2022/03/21 10:43:19;;;;;;;;;;;;;;;18.43;100.00;103145.13;4986261;28;20009;-71
2022/03/21 10:45:49;;;;;;;;;;;;;;;19.56;100.00;103152.06;4986184;28;20272;-71
2022/03/21 10:48:18;;;;;;;;;;;;;;;19.98;100.00;103160.03;4985336;28;19918;-71
2022/03/21 10:50:45;;;;;;;;;;;;;;;19.39;100.00;103156.44;4977343;28;19922;-71
2022/03/21 10:53:12;;;;;;;;;;;;;;;19.78;100.00;103154.69;4979465;28;19972;-71
2022/03/21 10:55:38;;;;;;;;;;;;;;;20.17;100.00;103150.22;4975561;28;19918;-71
2022/03/21 10:58:04;;;;;;;;;;;;;;;20.72;100.00;103151.19;4977658;28;20439;-71
2022/03/21 11:00:29;;;;;;;;;;;;;;;20.72;100.00;103148.50;4974252;28;19954;-69
2022/03/21 11:03:06;;;;;;;;;;;;;;;20.63;100.00;103152.50;4974895;28;20038;-69
2022/03/21 11:05:33;;;;;;;;;;;;;;;21.58;100.00;103146.81;4974980;28;19919;-70
2022/03/21 11:07:58;;;;;;;;;;;;;;;21.49;100.00;103145.47;4983454;28;19965;-70
2022/03/21 11:10:25;;;;;;;;;;;;;;;21.55;100.00;103150.56;4992629;28;20370;-70
2022/03/21 11:12:50;;;;;;;;;;;;;;;20.14;100.00;103155.75;4989722;28;20021;-70
2022/03/21 11:15:15;;;;;;;;;;;;;;;21.20;100.00;103141.56;4992596;28;19949;-71
2022/03/21 11:17:41;;;;;;;;;;;;;;;22.09;100.00;103144.09;4986933;28;20380;-71
2022/03/21 11:20:08;;;;;;;;;;;;;;;22.57;100.00;103144.09;4980417;28;19918;-71
2022/03/21 11:22:36;;;;;;;;;;;;;;;22.46;100.00;103144.69;4985239;28;20391;-69
2022/03/21 11:25:06;;;;;;;;;;;;;;;23.26;98.60;103148.19;4977209;28;19925;-70
2022/03/21 11:27:46;;;;;;;;;;;;;;;23.55;96.66;103143.72;4986842;28;20318;-69
2022/03/21 11:30:23;;;;;;;;;;;;;;;24.04;97.16;103140.66;4996349;28;19965;-70
2022/03/21 11:33:00;;;;;;;;;;;;;;;25.54;83.47;103143.28;4985486;28;20018;-70
2022/03/21 11:35:28;;;;;;;;;;;;;;;25.68;79.22;103150.50;4993212;28;19966;-71
2022/03/21 11:37:57;;;;;;;;;;;;;;;24.97;76.71;103143.63;4983125;28;19919;-71
2022/03/21 11:40:26;;;;;;;;;;;;;;;25.41;75.58;103149.69;4977385;28;19918;-70
2022/03/21 11:42:51;;;;;;;;;;;;;;;24.71;76.55;103139.06;4978745;28;19972;-70
2022/03/21 11:45:20;;;;;;;;;;;;;;;25.72;79.90;103141.13;4993700;28;19918;-71
2022/03/21 11:47:45;;;;;;;;;;;;;;;26.40;70.38;103133.50;4992416;28;19919;-71
2022/03/21 11:50:23;;;;;;;;;;;;;;;24.97;64.65;103138.19;4993880;28;19929;-70
2022/03/21 11:53:08;;;;;;;;;;;;;;;25.16;67.88;103135.97;4988990;28;19929;-69
2022/03/21 11:55:37;;;;;;;;;;;;;;;25.81;72.93;103126.91;4985351;28;20331;-70
2022/03/21 11:58:21;;;;;;;;;;;;;;;26.09;73.64;103123.09;4983802;28;19925;-70
2022/03/21 12:01:01;;;;;;;;;;;;;;;26.91;67.62;103137.88;4987379;28;19914;-70
2022/03/21 12:03:27;;;;;;;;;;;;;;;27.47;67.00;103133.53;4977491;28;19925;-70
2022/03/21 12:05:52;;;;;;;;;;;;;;;27.80;59.70;103131.78;4992179;28;19914;-71
2022/03/21 12:08:50;;;;;;;;;;;;;;;27.78;62.47;103141.09;4977739;28;20013;-71
2022/03/21 12:11:34;;;;;;;;;;;;;;;27.41;62.80;103142.22;4970557;28;19939;-70
2022/03/21 12:14:19;;;;;;;;;;;;;;;26.98;55.18;103137.28;4992235;28;19922;-70
2022/03/21 12:16:44;;;;;;;;;;;;;;;27.89;60.02;103132.97;4995167;28;19953;-69
2022/03/21 12:19:09;;;;;;;;;;;;;;;27.63;62.27;103134.97;4996462;28;20327;-70
2022/03/21 12:21:34;;;;;;;;;;;;;;;27.41;54.13;103140.38;4996236;28;19922;-70
2022/03/21 12:24:16;;;;;;;;;;;;;;;27.64;59.24;103133.13;4996188;28;19926;-70
2022/03/21 12:26:48;;;;;;;;;;;;;;;26.42;61.56;103126.09;4995859;28;19917;-70
2022/03/21 12:29:32;;;;;;;;;;;;;;;28.12;61.50;103126.50;4978761;28;19922;-71
2022/03/21 12:32:16;;;;;;;;;;;;;;;29.00;52.92;103123.69;4995222;28;19921;-71
2022/03/21 12:34:42;;;;;;;;;;;;;;;26.65;58.98;103118.00;4996074;28;20275;-69
2022/03/21 12:37:38;;;;;;;;;;;;;;;24.74;68.63;103117.13;4996441;28;19929;-69
2022/03/21 12:40:07;;;;;;;;;;;;;;;25.73;71.97;103110.22;4990234;28;20011;-69
2022/03/21 12:42:33;;;;;;;;;;;;;;;26.89;73.06;103107.09;4994763;28;19924;-69
2022/03/21 12:44:59;;;;;;;;;;;;;;;28.27;70.85;103106.16;4995606;28;19921;-70
2022/03/21 12:47:25;;;;;;;;;;;;;;;26.86;61.76;103104.63;4975616;28;20029;-71
2022/03/21 12:49:52;;;;;;;;;;;;;;;27.81;60.73;103108.06;4977080;28;19925;-70
2022/03/21 12:52:26;;;;;;;;;;;;;;;27.80;62.96;103106.31;4975402;28;19918;-70
2022/03/21 12:54:53;;;;;;;;;;;;;;;28.19;64.92;103100.44;4976550;28;20292;-71
2022/03/21 12:57:18;;;;;;;;;;;;;;;27.65;66.44;103102.09;4992220;28;19925;-68
2022/03/21 12:59:43;;;;;;;;;;;;;;;27.24;72.31;103098.97;4974745;28;19918;-68
2022/03/21 13:02:22;;;;;;;;;;;;;;;27.44;64.70;103093.72;4974744;28;19928;-68